createdAt,value
2017-07-26T00:00:04.938Z,936.73
2017-07-26T00:00:16.823Z,936.76
2017-07-26T00:00:30.258Z,936.73
2017-07-26T00:00:43.765Z,936.69
2017-07-26T00:00:57.340Z,936.72
2017-07-26T00:01:10.844Z,936.7
2017-07-26T00:01:24.321Z,936.71
2017-07-26T00:01:37.804Z,936.74
2017-07-26T00:01:51.313Z,936.72
2017-07-26T00:02:04.238Z,936.72
2017-07-26T00:02:17.660Z,936.69
2017-07-26T00:02:31.057Z,936.71
2017-07-26T00:02:44.564Z,936.7
2017-07-26T00:02:57.992Z,936.71
2017-07-26T00:03:10.976Z,936.75
2017-07-26T00:03:24.401Z,936.75
2017-07-26T00:03:37.820Z,936.75
2017-07-26T00:03:50.732Z,936.71
2017-07-26T00:04:04.144Z,936.73
2017-07-26T00:04:17.058Z,936.69
2017-07-26T00:04:30.542Z,936.73
2017-07-26T00:04:43.493Z,936.71
2017-07-26T00:04:56.968Z,936.73
2017-07-26T00:05:10.425Z,936.75
2017-07-26T00:05:23.408Z,936.74
2017-07-26T00:05:36.382Z,936.71
2017-07-26T00:05:49.853Z,936.74
2017-07-26T00:06:03.308Z,936.75
2017-07-26T00:06:16.738Z,936.76
2017-07-26T00:06:29.688Z,936.75
2017-07-26T00:06:43.234Z,936.72
2017-07-26T00:06:56.636Z,936.76
2017-07-26T00:07:10.181Z,936.74
2017-07-26T00:07:23.214Z,936.77
2017-07-26T00:07:36.671Z,936.75
2017-07-26T00:07:50.086Z,936.74
2017-07-26T00:08:03.541Z,936.74
2017-07-26T00:08:16.419Z,936.79
2017-07-26T00:08:29.860Z,936.76
2017-07-26T00:08:42.789Z,936.76
2017-07-26T00:08:56.254Z,936.76
2017-07-26T00:09:09.187Z,936.79
2017-07-26T00:09:22.110Z,936.76
2017-07-26T00:09:34.981Z,936.77
2017-07-26T00:09:48.451Z,936.74
2017-07-26T00:10:01.863Z,936.77
2017-07-26T00:10:14.820Z,936.77
2017-07-26T00:10:27.740Z,936.76
2017-07-26T00:10:41.290Z,936.75
2017-07-26T00:10:54.812Z,936.72
2017-07-26T00:11:09.009Z,936.72
2017-07-26T00:11:21.909Z,936.76
2017-07-26T00:11:35.338Z,936.73
2017-07-26T00:11:48.770Z,936.74
2017-07-26T00:12:02.279Z,936.76
2017-07-26T00:12:15.223Z,936.74
2017-07-26T00:12:28.184Z,936.77
2017-07-26T00:12:41.585Z,936.72
2017-07-26T00:12:55.027Z,936.74
2017-07-26T00:13:08.453Z,936.73
2017-07-26T00:13:21.922Z,936.75
2017-07-26T00:13:34.800Z,936.74
2017-07-26T00:13:48.168Z,936.78
2017-07-26T00:14:01.606Z,936.77
2017-07-26T00:14:14.525Z,936.78
2017-07-26T00:14:27.467Z,936.76
2017-07-26T00:14:40.951Z,936.75
2017-07-26T00:14:54.348Z,936.78
2017-07-26T00:15:07.825Z,936.78
2017-07-26T00:15:20.812Z,936.78
2017-07-26T00:15:33.787Z,936.81
2017-07-26T00:15:47.297Z,936.76
2017-07-26T00:16:00.718Z,936.77
2017-07-26T00:16:14.368Z,936.75
2017-07-26T00:16:27.851Z,936.75
2017-07-26T00:16:41.284Z,936.78
2017-07-26T00:16:54.748Z,936.75
2017-07-26T00:17:07.663Z,936.77
2017-07-26T00:17:20.568Z,936.75
2017-07-26T00:17:34.015Z,936.76
2017-07-26T00:17:47.521Z,936.75
2017-07-26T00:18:01.010Z,936.73
2017-07-26T00:18:14.420Z,936.76
2017-07-26T00:18:27.902Z,936.76
2017-07-26T00:18:40.749Z,936.74
2017-07-26T00:18:54.224Z,936.72
2017-07-26T00:19:07.180Z,936.74
2017-07-26T00:19:20.666Z,936.76
2017-07-26T00:19:33.620Z,936.75
2017-07-26T00:19:47.147Z,936.73
2017-07-26T00:20:00.039Z,936.71
2017-07-26T00:20:12.978Z,936.75
2017-07-26T00:20:26.402Z,936.76
2017-07-26T00:20:39.944Z,936.75
2017-07-26T00:20:53.360Z,936.74
2017-07-26T00:21:06.335Z,936.76
2017-07-26T00:21:19.743Z,936.71
2017-07-26T00:21:33.197Z,936.77
2017-07-26T00:21:46.627Z,936.76
2017-07-26T00:21:59.021Z,936.75
2017-07-26T00:22:12.493Z,936.74
2017-07-26T00:22:25.474Z,936.74
2017-07-26T00:22:38.898Z,936.75
2017-07-26T00:22:52.371Z,936.77
2017-07-26T00:23:05.830Z,936.75
2017-07-26T00:23:19.319Z,936.77
2017-07-26T00:23:32.755Z,936.74
2017-07-26T00:23:46.166Z,936.78
2017-07-26T00:23:59.587Z,936.71
2017-07-26T00:24:11.964Z,936.75
2017-07-26T00:24:25.408Z,936.72
2017-07-26T00:24:38.346Z,936.77
2017-07-26T00:24:51.772Z,936.74
2017-07-26T00:25:05.255Z,936.74
2017-07-26T00:25:18.643Z,936.73
2017-07-26T00:25:31.581Z,936.75
2017-07-26T00:25:44.519Z,936.72
2017-07-26T00:25:57.947Z,936.76
2017-07-26T00:26:11.719Z,936.78
2017-07-26T00:26:25.187Z,936.75
2017-07-26T00:26:38.599Z,936.74
2017-07-26T00:26:52.046Z,936.78
2017-07-26T00:27:04.915Z,936.76
2017-07-26T00:27:17.870Z,936.77
2017-07-26T00:27:30.821Z,936.8
2017-07-26T00:27:44.289Z,936.77
2017-07-26T00:27:57.770Z,936.8
2017-07-26T00:28:11.293Z,936.78
2017-07-26T00:28:24.218Z,936.78
2017-07-26T00:28:37.579Z,936.77
2017-07-26T00:28:50.469Z,936.79
2017-07-26T00:29:03.912Z,936.76
2017-07-26T00:29:17.386Z,936.76
2017-07-26T00:29:30.838Z,936.77
2017-07-26T00:29:44.319Z,936.81
2017-07-26T00:29:57.771Z,936.81
2017-07-26T00:30:10.646Z,936.82
2017-07-26T00:30:24.112Z,936.78
2017-07-26T00:30:37.003Z,936.8
2017-07-26T00:30:49.911Z,936.79
2017-07-26T00:31:03.287Z,936.77
2017-07-26T00:31:16.338Z,936.78
2017-07-26T00:31:29.799Z,936.81
2017-07-26T00:31:42.644Z,936.78
2017-07-26T00:31:56.129Z,936.79
2017-07-26T00:32:09.638Z,936.78
2017-07-26T00:32:23.125Z,936.78
2017-07-26T00:32:36.598Z,936.78
2017-07-26T00:32:49.991Z,936.77
2017-07-26T00:33:03.479Z,936.81
2017-07-26T00:33:16.427Z,936.79
2017-07-26T00:33:29.874Z,936.76
2017-07-26T00:33:43.312Z,936.79
2017-07-26T00:33:56.222Z,936.78
2017-07-26T00:34:09.626Z,936.77
2017-07-26T00:34:23.033Z,936.83
2017-07-26T00:34:36.483Z,936.82
2017-07-26T00:34:49.942Z,936.8
2017-07-26T00:35:03.398Z,936.81
2017-07-26T00:35:16.335Z,936.79
2017-07-26T00:35:29.813Z,936.79
2017-07-26T00:35:42.773Z,936.8
2017-07-26T00:35:56.206Z,936.81
2017-07-26T00:36:09.614Z,936.81
2017-07-26T00:36:23.125Z,936.79
2017-07-26T00:36:36.537Z,936.8
2017-07-26T00:36:48.955Z,936.82
2017-07-26T00:37:01.890Z,936.81
2017-07-26T00:37:14.807Z,936.8
2017-07-26T00:37:27.253Z,936.8
2017-07-26T00:37:39.645Z,936.82
2017-07-26T00:37:53.152Z,936.82
2017-07-26T00:38:06.630Z,936.82
2017-07-26T00:38:19.583Z,936.8
2017-07-26T00:38:32.509Z,936.8
2017-07-26T00:38:45.440Z,936.83
2017-07-26T00:38:58.911Z,936.86
2017-07-26T00:39:12.405Z,936.83
2017-07-26T00:39:25.345Z,936.85
2017-07-26T00:39:38.257Z,936.83
2017-07-26T00:39:51.730Z,936.86
2017-07-26T00:40:04.668Z,936.85
2017-07-26T00:40:18.125Z,936.84
2017-07-26T00:40:31.017Z,936.83
2017-07-26T00:40:44.423Z,936.84
2017-07-26T00:40:57.844Z,936.87
2017-07-26T00:41:12.088Z,936.86
2017-07-26T00:41:25.000Z,936.86
2017-07-26T00:41:38.459Z,936.9
2017-07-26T00:41:52.054Z,936.83
2017-07-26T00:42:05.518Z,936.88
2017-07-26T00:42:18.996Z,936.91
2017-07-26T00:42:32.463Z,936.9
2017-07-26T00:42:45.904Z,936.87
2017-07-26T00:42:59.314Z,936.84
2017-07-26T00:43:11.751Z,936.87
2017-07-26T00:43:24.717Z,936.85
2017-07-26T00:43:38.115Z,936.87
2017-07-26T00:43:51.016Z,936.84
2017-07-26T00:44:03.921Z,936.87
2017-07-26T00:44:15.816Z,936.88
2017-07-26T00:44:29.240Z,936.85
2017-07-26T00:44:42.743Z,936.85
2017-07-26T00:44:56.163Z,936.91
2017-07-26T00:45:09.100Z,936.88
2017-07-26T00:45:21.516Z,936.89
2017-07-26T00:45:34.363Z,936.92
2017-07-26T00:45:47.749Z,936.89
2017-07-26T00:46:00.645Z,936.89
2017-07-26T00:46:14.212Z,936.92
2017-07-26T00:46:27.621Z,936.89
2017-07-26T00:46:41.119Z,936.87
2017-07-26T00:46:54.596Z,936.87
2017-07-26T00:47:07.471Z,936.88
2017-07-26T00:47:20.419Z,936.9
2017-07-26T00:47:33.932Z,936.9
2017-07-26T00:47:47.331Z,936.88
2017-07-26T00:47:59.798Z,936.89
2017-07-26T00:48:13.299Z,936.84
2017-07-26T00:48:26.719Z,936.88
2017-07-26T00:48:40.148Z,936.87
2017-07-26T00:48:53.090Z,936.85
2017-07-26T00:49:06.558Z,936.89
2017-07-26T00:49:20.070Z,936.86
2017-07-26T00:49:33.595Z,936.89
2017-07-26T00:49:47.118Z,936.9
2017-07-26T00:50:00.534Z,936.89
2017-07-26T00:50:13.973Z,936.9
2017-07-26T00:50:27.431Z,936.85
2017-07-26T00:50:40.332Z,936.86
2017-07-26T00:50:53.299Z,936.94
2017-07-26T00:51:06.729Z,936.86
2017-07-26T00:51:20.212Z,936.86
2017-07-26T00:51:33.174Z,936.87
2017-07-26T00:51:46.673Z,936.88
2017-07-26T00:52:00.114Z,936.87
2017-07-26T00:52:13.171Z,936.88
2017-07-26T00:52:26.644Z,936.86
2017-07-26T00:52:40.080Z,936.88
2017-07-26T00:52:53.490Z,936.87
2017-07-26T00:53:06.986Z,936.89
2017-07-26T00:53:20.382Z,936.87
2017-07-26T00:53:33.308Z,936.83
2017-07-26T00:53:46.763Z,936.86
2017-07-26T00:54:00.292Z,936.87
2017-07-26T00:54:12.711Z,936.85
2017-07-26T00:54:26.127Z,936.87
2017-07-26T00:54:38.997Z,936.85
2017-07-26T00:54:52.500Z,936.86
2017-07-26T00:55:05.965Z,936.85
2017-07-26T00:55:19.012Z,936.85
2017-07-26T00:55:32.014Z,936.85
2017-07-26T00:55:45.366Z,936.84
2017-07-26T00:55:58.253Z,936.8
2017-07-26T00:56:11.152Z,936.83
2017-07-26T00:56:25.125Z,936.85
2017-07-26T00:56:38.604Z,936.84
2017-07-26T00:56:52.114Z,936.84
2017-07-26T00:57:05.567Z,936.84
2017-07-26T00:57:17.992Z,936.82
2017-07-26T00:57:31.457Z,936.88
2017-07-26T00:57:44.336Z,936.86
2017-07-26T00:57:57.750Z,936.84
2017-07-26T00:58:10.620Z,936.87
2017-07-26T00:58:24.045Z,936.85
2017-07-26T00:58:37.477Z,936.86
2017-07-26T00:58:49.944Z,936.86
2017-07-26T00:59:03.454Z,936.84
2017-07-26T00:59:16.965Z,936.87
2017-07-26T00:59:29.905Z,936.84
2017-07-26T00:59:43.328Z,936.84
2017-07-26T00:59:56.822Z,936.84
2017-07-26T01:00:10.381Z,936.81
2017-07-26T01:00:23.865Z,936.87
2017-07-26T01:00:37.406Z,936.84
2017-07-26T01:00:50.868Z,936.85
2017-07-26T01:01:04.332Z,936.87
2017-07-26T01:01:17.759Z,936.82
2017-07-26T01:01:30.681Z,936.83
2017-07-26T01:01:44.161Z,936.83
2017-07-26T01:01:57.626Z,936.82
2017-07-26T01:02:11.141Z,936.83
2017-07-26T01:02:24.113Z,936.87
2017-07-26T01:02:37.596Z,936.83
2017-07-26T01:02:51.071Z,936.84
2017-07-26T01:03:04.572Z,936.85
2017-07-26T01:03:17.443Z,936.83
2017-07-26T01:03:30.831Z,936.83
2017-07-26T01:03:44.324Z,936.83
2017-07-26T01:03:57.784Z,936.84
2017-07-26T01:04:10.193Z,936.84
2017-07-26T01:04:23.754Z,936.85
2017-07-26T01:04:37.195Z,936.86
2017-07-26T01:04:50.630Z,936.81
2017-07-26T01:05:03.535Z,936.86
2017-07-26T01:05:16.523Z,936.83
2017-07-26T01:05:29.965Z,936.85
2017-07-26T01:05:43.385Z,936.87
2017-07-26T01:05:56.358Z,936.88
2017-07-26T01:06:09.236Z,936.89
2017-07-26T01:06:22.770Z,936.88
2017-07-26T01:06:36.265Z,936.87
2017-07-26T01:06:49.770Z,936.89
2017-07-26T01:07:03.177Z,936.9
2017-07-26T01:07:16.781Z,936.83
2017-07-26T01:07:29.677Z,936.85
2017-07-26T01:07:42.093Z,936.88
2017-07-26T01:07:55.567Z,936.85
2017-07-26T01:08:09.020Z,936.89
2017-07-26T01:08:21.880Z,936.91
2017-07-26T01:08:35.351Z,936.83
2017-07-26T01:08:48.803Z,936.85
2017-07-26T01:09:02.260Z,936.85
2017-07-26T01:09:15.778Z,936.87
2017-07-26T01:09:28.759Z,936.85
2017-07-26T01:09:41.654Z,936.87
2017-07-26T01:09:55.109Z,936.87
2017-07-26T01:10:08.005Z,936.83
2017-07-26T01:10:21.474Z,936.84
2017-07-26T01:10:34.921Z,936.86
2017-07-26T01:10:48.346Z,936.83
2017-07-26T01:11:01.842Z,936.83
2017-07-26T01:11:14.846Z,936.84
2017-07-26T01:11:28.586Z,936.82
2017-07-26T01:11:41.521Z,936.83
2017-07-26T01:11:54.441Z,936.83
2017-07-26T01:12:07.875Z,936.83
2017-07-26T01:12:21.330Z,936.84
2017-07-26T01:12:34.766Z,936.83
2017-07-26T01:12:48.259Z,936.82
2017-07-26T01:13:01.675Z,936.82
2017-07-26T01:13:15.099Z,936.85
2017-07-26T01:13:28.576Z,936.83
2017-07-26T01:13:41.976Z,936.84
2017-07-26T01:13:55.432Z,936.87
2017-07-26T01:14:08.921Z,936.83
2017-07-26T01:14:21.849Z,936.84
2017-07-26T01:14:34.807Z,936.84
2017-07-26T01:14:47.746Z,936.82
2017-07-26T01:15:01.172Z,936.82
2017-07-26T01:15:14.646Z,936.81
2017-07-26T01:15:28.040Z,936.82
2017-07-26T01:15:41.603Z,936.83
2017-07-26T01:15:55.078Z,936.82
2017-07-26T01:16:08.551Z,936.8
2017-07-26T01:16:22.019Z,936.8
2017-07-26T01:16:35.452Z,936.83
2017-07-26T01:16:48.878Z,936.81
2017-07-26T01:17:02.411Z,936.84
2017-07-26T01:17:15.825Z,936.84
2017-07-26T01:17:29.239Z,936.84
2017-07-26T01:17:42.723Z,936.8
2017-07-26T01:17:56.124Z,936.85
2017-07-26T01:18:09.081Z,936.82
2017-07-26T01:18:22.728Z,936.82
2017-07-26T01:18:36.148Z,936.81
2017-07-26T01:18:49.611Z,936.82
2017-07-26T01:19:03.273Z,936.83
2017-07-26T01:19:16.814Z,936.85
2017-07-26T01:19:29.707Z,936.85
2017-07-26T01:19:42.674Z,936.81
2017-07-26T01:19:56.092Z,936.84
2017-07-26T01:20:09.532Z,936.8
2017-07-26T01:20:23.014Z,936.82
2017-07-26T01:20:36.496Z,936.82
2017-07-26T01:20:49.482Z,936.81
2017-07-26T01:21:02.979Z,936.83
2017-07-26T01:21:16.455Z,936.82
2017-07-26T01:21:29.958Z,936.8
2017-07-26T01:21:43.464Z,936.81
2017-07-26T01:21:56.986Z,936.83
2017-07-26T01:22:10.444Z,936.79
2017-07-26T01:22:23.391Z,936.82
2017-07-26T01:22:36.910Z,936.77
2017-07-26T01:22:50.343Z,936.78
2017-07-26T01:23:03.820Z,936.82
2017-07-26T01:23:17.298Z,936.81
2017-07-26T01:23:30.731Z,936.83
2017-07-26T01:23:43.705Z,936.82
2017-07-26T01:23:57.091Z,936.81
2017-07-26T01:24:09.952Z,936.8
2017-07-26T01:24:23.353Z,936.79
2017-07-26T01:24:36.224Z,936.78
2017-07-26T01:24:49.682Z,936.8
2017-07-26T01:25:03.128Z,936.81
2017-07-26T01:25:16.706Z,936.82
2017-07-26T01:25:30.119Z,936.85
2017-07-26T01:25:43.515Z,936.82
2017-07-26T01:25:56.999Z,936.85
2017-07-26T01:26:10.441Z,936.81
2017-07-26T01:26:24.472Z,936.83
2017-07-26T01:26:37.430Z,936.81
2017-07-26T01:26:50.872Z,936.81
2017-07-26T01:27:03.754Z,936.83
2017-07-26T01:27:17.175Z,936.81
2017-07-26T01:27:30.109Z,936.84
2017-07-26T01:27:43.597Z,936.84
2017-07-26T01:27:56.507Z,936.81
2017-07-26T01:28:09.893Z,936.84
2017-07-26T01:28:23.437Z,936.84
2017-07-26T01:28:36.387Z,936.82
2017-07-26T01:28:49.830Z,936.79
2017-07-26T01:29:03.320Z,936.79
2017-07-26T01:29:16.792Z,936.82
2017-07-26T01:29:30.315Z,936.79
2017-07-26T01:29:43.792Z,936.79
2017-07-26T01:29:57.272Z,936.83
2017-07-26T01:30:10.769Z,936.81
2017-07-26T01:30:24.301Z,936.8
2017-07-26T01:30:37.229Z,936.79
2017-07-26T01:30:50.673Z,936.79
2017-07-26T01:31:04.180Z,936.81
2017-07-26T01:31:17.663Z,936.81
2017-07-26T01:31:30.577Z,936.81
2017-07-26T01:31:43.987Z,936.84
2017-07-26T01:31:56.880Z,936.81
2017-07-26T01:32:09.721Z,936.78
2017-07-26T01:32:22.622Z,936.8
2017-07-26T01:32:36.034Z,936.82
2017-07-26T01:32:49.491Z,936.83
2017-07-26T01:33:02.388Z,936.78
2017-07-26T01:33:15.847Z,936.8
2017-07-26T01:33:29.362Z,936.79
2017-07-26T01:33:42.315Z,936.83
2017-07-26T01:33:55.307Z,936.81
2017-07-26T01:34:08.780Z,936.8
2017-07-26T01:34:22.264Z,936.8
2017-07-26T01:34:35.718Z,936.78
2017-07-26T01:34:49.159Z,936.79
2017-07-26T01:35:02.033Z,936.79
2017-07-26T01:35:14.477Z,936.84
2017-07-26T01:35:27.834Z,936.81
2017-07-26T01:35:41.308Z,936.79
2017-07-26T01:35:54.755Z,936.78
2017-07-26T01:36:07.661Z,936.8
2017-07-26T01:36:21.087Z,936.78
2017-07-26T01:36:34.625Z,936.79
2017-07-26T01:36:47.518Z,936.82
2017-07-26T01:37:00.986Z,936.79
2017-07-26T01:37:14.457Z,936.82
2017-07-26T01:37:27.987Z,936.78
2017-07-26T01:37:41.489Z,936.81
2017-07-26T01:37:54.959Z,936.8
2017-07-26T01:38:08.430Z,936.81
2017-07-26T01:38:21.347Z,936.79
2017-07-26T01:38:34.795Z,936.79
2017-07-26T01:38:48.295Z,936.81
2017-07-26T01:39:01.796Z,936.81
2017-07-26T01:39:15.288Z,936.81
2017-07-26T01:39:28.733Z,936.8
2017-07-26T01:39:41.650Z,936.82
2017-07-26T01:39:55.116Z,936.83
2017-07-26T01:40:08.080Z,936.81
2017-07-26T01:40:21.550Z,936.77
2017-07-26T01:40:35.000Z,936.79
2017-07-26T01:40:48.524Z,936.8
2017-07-26T01:41:01.930Z,936.78
2017-07-26T01:41:15.367Z,936.8
2017-07-26T01:41:28.869Z,936.8
2017-07-26T01:41:43.194Z,936.79
2017-07-26T01:41:56.716Z,936.8
2017-07-26T01:42:10.153Z,936.84
2017-07-26T01:42:23.664Z,936.83
2017-07-26T01:42:36.565Z,936.81
2017-07-26T01:42:50.069Z,936.82
2017-07-26T01:43:03.548Z,936.82
2017-07-26T01:43:16.491Z,936.82
2017-07-26T01:43:29.378Z,936.82
2017-07-26T01:43:42.790Z,936.81
2017-07-26T01:43:56.211Z,936.83
2017-07-26T01:44:09.652Z,936.83
2017-07-26T01:44:23.206Z,936.83
2017-07-26T01:44:36.626Z,936.82
2017-07-26T01:44:50.079Z,936.81
2017-07-26T01:45:03.517Z,936.83
2017-07-26T01:45:15.954Z,936.81
2017-07-26T01:45:29.451Z,936.85
2017-07-26T01:45:43.025Z,936.81
2017-07-26T01:45:56.022Z,936.84
2017-07-26T01:46:09.042Z,936.83
2017-07-26T01:46:21.993Z,936.82
2017-07-26T01:46:35.766Z,936.82
2017-07-26T01:46:49.298Z,936.86
2017-07-26T01:47:02.792Z,936.79
2017-07-26T01:47:15.739Z,936.86
2017-07-26T01:47:29.228Z,936.79
2017-07-26T01:47:42.712Z,936.83
2017-07-26T01:47:55.592Z,936.84
2017-07-26T01:48:09.076Z,936.83
2017-07-26T01:48:22.497Z,936.84
2017-07-26T01:48:35.918Z,936.79
2017-07-26T01:48:49.407Z,936.81
2017-07-26T01:49:02.838Z,936.84
2017-07-26T01:49:15.750Z,936.78
2017-07-26T01:49:28.121Z,936.81
2017-07-26T01:49:41.643Z,936.83
2017-07-26T01:49:55.112Z,936.79
2017-07-26T01:50:08.590Z,936.79
2017-07-26T01:50:22.046Z,936.82
2017-07-26T01:50:35.467Z,936.8
2017-07-26T01:50:48.887Z,936.82
2017-07-26T01:51:02.369Z,936.79
2017-07-26T01:51:15.818Z,936.78
2017-07-26T01:51:29.257Z,936.83
2017-07-26T01:51:42.930Z,936.8
2017-07-26T01:51:56.438Z,936.83
2017-07-26T01:52:09.419Z,936.82
2017-07-26T01:52:22.879Z,936.81
2017-07-26T01:52:36.325Z,936.83
2017-07-26T01:52:49.787Z,936.82
2017-07-26T01:53:03.228Z,936.82
2017-07-26T01:53:16.759Z,936.81
2017-07-26T01:53:30.181Z,936.82
2017-07-26T01:53:43.642Z,936.76
2017-07-26T01:53:57.192Z,936.82
2017-07-26T01:54:10.126Z,936.8
2017-07-26T01:54:23.566Z,936.78
2017-07-26T01:54:37.063Z,936.8
2017-07-26T01:54:50.052Z,936.76
2017-07-26T01:55:02.981Z,936.8
2017-07-26T01:55:15.958Z,936.79
2017-07-26T01:55:29.469Z,936.78
2017-07-26T01:55:42.978Z,936.8
2017-07-26T01:55:56.705Z,936.81
2017-07-26T01:56:10.195Z,936.79
2017-07-26T01:56:23.703Z,936.78
2017-07-26T01:56:37.340Z,936.81
2017-07-26T01:56:50.809Z,936.82
2017-07-26T01:57:04.325Z,936.83
2017-07-26T01:57:17.271Z,936.81
2017-07-26T01:57:30.260Z,936.8
2017-07-26T01:57:43.694Z,936.82
2017-07-26T01:57:57.130Z,936.8
2017-07-26T01:58:10.036Z,936.87
2017-07-26T01:58:23.502Z,936.81
2017-07-26T01:58:36.959Z,936.85
2017-07-26T01:58:50.399Z,936.79
2017-07-26T01:59:03.353Z,936.83
2017-07-26T01:59:16.915Z,936.84
2017-07-26T01:59:29.858Z,936.79
2017-07-26T01:59:43.357Z,936.83
2017-07-26T01:59:55.814Z,936.82
2017-07-26T02:00:09.270Z,936.8
2017-07-26T02:00:22.208Z,936.82
2017-07-26T02:00:35.663Z,936.79
2017-07-26T02:00:49.140Z,936.82
2017-07-26T02:01:02.603Z,936.82
2017-07-26T02:01:15.555Z,936.8
2017-07-26T02:01:29.067Z,936.78
2017-07-26T02:01:42.574Z,936.78
2017-07-26T02:01:56.079Z,936.79
2017-07-26T02:02:09.545Z,936.79
2017-07-26T02:02:23.028Z,936.8
2017-07-26T02:02:35.394Z,936.83
2017-07-26T02:02:48.840Z,936.83
2017-07-26T02:03:02.392Z,936.83
2017-07-26T02:03:15.883Z,936.82
2017-07-26T02:03:28.360Z,936.82
2017-07-26T02:03:41.795Z,936.83
2017-07-26T02:03:55.247Z,936.82
2017-07-26T02:04:08.180Z,936.82
2017-07-26T02:04:23.094Z,936.79
2017-07-26T02:04:36.584Z,936.8
2017-07-26T02:04:50.000Z,936.83
2017-07-26T02:05:03.514Z,936.82
2017-07-26T02:05:15.975Z,936.81
2017-07-26T02:05:28.929Z,936.81
2017-07-26T02:05:42.604Z,936.79
2017-07-26T02:05:56.048Z,936.76
2017-07-26T02:06:09.462Z,936.79
2017-07-26T02:06:22.832Z,936.8
2017-07-26T02:06:36.266Z,936.76
2017-07-26T02:06:49.739Z,936.8
2017-07-26T02:07:03.206Z,936.8
2017-07-26T02:07:16.635Z,936.78
2017-07-26T02:07:30.045Z,936.81
2017-07-26T02:07:43.557Z,936.79
2017-07-26T02:07:57.037Z,936.76
2017-07-26T02:08:10.467Z,936.8
2017-07-26T02:08:23.864Z,936.77
2017-07-26T02:08:36.837Z,936.8
2017-07-26T02:08:50.272Z,936.79
2017-07-26T02:09:03.753Z,936.78
2017-07-26T02:09:17.172Z,936.78
2017-07-26T02:09:30.674Z,936.78
2017-07-26T02:09:44.094Z,936.79
2017-07-26T02:09:57.588Z,936.79
2017-07-26T02:10:11.074Z,936.8
2017-07-26T02:10:24.609Z,936.78
2017-07-26T02:10:38.062Z,936.78
2017-07-26T02:10:51.525Z,936.77
2017-07-26T02:11:05.005Z,936.79
2017-07-26T02:11:18.571Z,936.8
2017-07-26T02:11:31.998Z,936.81
2017-07-26T02:11:46.321Z,936.77
2017-07-26T02:11:59.792Z,936.8
2017-07-26T02:12:13.271Z,936.75
2017-07-26T02:12:26.755Z,936.79
2017-07-26T02:12:40.229Z,936.79
2017-07-26T02:12:53.694Z,936.78
2017-07-26T02:13:07.161Z,936.79
2017-07-26T02:13:20.646Z,936.79
2017-07-26T02:13:34.078Z,936.76
2017-07-26T02:13:47.566Z,936.77
2017-07-26T02:14:00.519Z,936.77
2017-07-26T02:14:13.974Z,936.78
2017-07-26T02:14:26.955Z,936.79
2017-07-26T02:14:40.451Z,936.77
2017-07-26T02:14:53.369Z,936.78
2017-07-26T02:15:06.829Z,936.76
2017-07-26T02:15:20.547Z,936.75
2017-07-26T02:15:34.070Z,936.75
2017-07-26T02:15:47.458Z,936.8
2017-07-26T02:16:00.885Z,936.76
2017-07-26T02:16:13.801Z,936.76
2017-07-26T02:16:27.084Z,936.77
2017-07-26T02:16:40.499Z,936.74
2017-07-26T02:16:53.907Z,936.77
2017-07-26T02:17:07.333Z,936.76
2017-07-26T02:17:20.853Z,936.77
2017-07-26T02:17:33.262Z,936.75
2017-07-26T02:17:46.710Z,936.77
2017-07-26T02:18:00.144Z,936.77
2017-07-26T02:18:13.649Z,936.77
2017-07-26T02:18:26.590Z,936.77
2017-07-26T02:18:39.461Z,936.75
2017-07-26T02:18:52.887Z,936.76
2017-07-26T02:19:06.321Z,936.8
2017-07-26T02:19:19.229Z,936.74
2017-07-26T02:19:32.179Z,936.75
2017-07-26T02:19:45.553Z,936.77
2017-07-26T02:19:59.002Z,936.73
2017-07-26T02:20:12.432Z,936.74
2017-07-26T02:20:24.870Z,936.75
2017-07-26T02:20:38.368Z,936.74
2017-07-26T02:20:51.855Z,936.76
2017-07-26T02:21:05.339Z,936.77
2017-07-26T02:21:18.770Z,936.78
2017-07-26T02:21:31.180Z,936.79
2017-07-26T02:21:44.117Z,936.77
2017-07-26T02:21:57.807Z,936.78
2017-07-26T02:22:11.260Z,936.75
2017-07-26T02:22:24.717Z,936.78
2017-07-26T02:22:37.610Z,936.74
2017-07-26T02:22:51.020Z,936.78
2017-07-26T02:23:04.451Z,936.75
2017-07-26T02:23:17.938Z,936.79
2017-07-26T02:23:30.366Z,936.77
2017-07-26T02:23:43.311Z,936.78
2017-07-26T02:23:56.797Z,936.77
2017-07-26T02:24:10.261Z,936.77
2017-07-26T02:24:23.736Z,936.81
2017-07-26T02:24:37.208Z,936.79
2017-07-26T02:24:50.640Z,936.77
2017-07-26T02:25:04.163Z,936.77
2017-07-26T02:25:17.723Z,936.81
2017-07-26T02:25:30.587Z,936.79
2017-07-26T02:25:44.065Z,936.78
2017-07-26T02:25:57.574Z,936.81
2017-07-26T02:26:10.482Z,936.78
2017-07-26T02:26:23.429Z,936.81
2017-07-26T02:26:36.925Z,936.8
2017-07-26T02:26:51.095Z,936.78
2017-07-26T02:27:04.554Z,936.81
2017-07-26T02:27:17.505Z,936.81
2017-07-26T02:27:30.934Z,936.81
2017-07-26T02:27:44.376Z,936.84
2017-07-26T02:27:57.799Z,936.8
2017-07-26T02:28:10.769Z,936.81
2017-07-26T02:28:23.712Z,936.84
2017-07-26T02:28:37.155Z,936.82
2017-07-26T02:28:50.596Z,936.81
2017-07-26T02:29:04.086Z,936.81
2017-07-26T02:29:17.489Z,936.81
2017-07-26T02:29:30.946Z,936.78
2017-07-26T02:29:43.842Z,936.82
2017-07-26T02:29:57.294Z,936.78
2017-07-26T02:30:10.775Z,936.83
2017-07-26T02:30:24.246Z,936.8
2017-07-26T02:30:37.713Z,936.79
2017-07-26T02:30:51.179Z,936.79
2017-07-26T02:31:04.102Z,936.78
2017-07-26T02:31:17.550Z,936.79
2017-07-26T02:31:30.989Z,936.78
2017-07-26T02:31:43.912Z,936.78
2017-07-26T02:31:57.378Z,936.8
2017-07-26T02:32:10.355Z,936.79
2017-07-26T02:32:23.843Z,936.81
2017-07-26T02:32:37.276Z,936.81
2017-07-26T02:32:50.261Z,936.81
2017-07-26T02:33:03.698Z,936.82
2017-07-26T02:33:17.142Z,936.82
2017-07-26T02:33:30.580Z,936.78
2017-07-26T02:33:44.112Z,936.76
2017-07-26T02:33:57.087Z,936.8
2017-07-26T02:34:10.566Z,936.77
2017-07-26T02:34:23.479Z,936.78
2017-07-26T02:34:36.362Z,936.8
2017-07-26T02:34:49.867Z,936.77
2017-07-26T02:35:02.791Z,936.79
2017-07-26T02:35:15.764Z,936.78
2017-07-26T02:35:28.150Z,936.77
2017-07-26T02:35:41.544Z,936.76
2017-07-26T02:35:55.028Z,936.75
2017-07-26T02:36:07.922Z,936.76
2017-07-26T02:36:21.339Z,936.76
2017-07-26T02:36:34.270Z,936.79
2017-07-26T02:36:47.686Z,936.79
2017-07-26T02:37:01.138Z,936.78
2017-07-26T02:37:14.681Z,936.8
2017-07-26T02:37:28.123Z,936.76
2017-07-26T02:37:41.124Z,936.77
2017-07-26T02:37:54.562Z,936.76
2017-07-26T02:38:08.039Z,936.77
2017-07-26T02:38:21.539Z,936.76
2017-07-26T02:38:33.436Z,936.77
2017-07-26T02:38:46.858Z,936.76
2017-07-26T02:38:59.763Z,936.71
2017-07-26T02:39:13.226Z,936.74
2017-07-26T02:39:26.638Z,936.76
2017-07-26T02:39:40.136Z,936.71
2017-07-26T02:39:53.068Z,936.72
2017-07-26T02:40:06.490Z,936.72
2017-07-26T02:40:19.453Z,936.72
2017-07-26T02:40:32.405Z,936.73
2017-07-26T02:40:45.855Z,936.73
2017-07-26T02:40:59.354Z,936.71
2017-07-26T02:41:12.860Z,936.68
2017-07-26T02:41:26.274Z,936.7
2017-07-26T02:41:39.832Z,936.69
2017-07-26T02:41:53.531Z,936.7
2017-07-26T02:42:06.493Z,936.67
2017-07-26T02:42:19.920Z,936.67
2017-07-26T02:42:33.327Z,936.63
2017-07-26T02:42:46.791Z,936.64
2017-07-26T02:42:59.751Z,936.66
2017-07-26T02:43:13.247Z,936.62
2017-07-26T02:43:26.667Z,936.65
2017-07-26T02:43:40.207Z,936.66
2017-07-26T02:43:53.628Z,936.65
2017-07-26T02:44:07.064Z,936.67
2017-07-26T02:44:20.014Z,936.65
2017-07-26T02:44:32.985Z,936.62
2017-07-26T02:44:46.418Z,936.62
2017-07-26T02:44:59.774Z,936.64
2017-07-26T02:45:13.268Z,936.63
2017-07-26T02:45:26.713Z,936.62
2017-07-26T02:45:39.705Z,936.61
2017-07-26T02:45:52.680Z,936.62
2017-07-26T02:46:06.140Z,936.64
2017-07-26T02:46:19.082Z,936.6